עמוד ראשי
METAR-TAF:

METAR-TAF

שדות תעופה :

בסיס טיסה

Morón de la Frontera, ספרד

קו רוחב: 37-09N, קו אורך: 005-37W, גובה: 87מטר

תצפית מזג אוויר נוכחית

הדו"ח נערך לפני 39דקות, בשעה 16:30 UTC
רוח 5קשר עם כיוונים משתנים
טמפרטורת 40 צלסיוס
לחות 18%
לחץ 1015 hPa
ראות 10 קילומטר או יותר
ללא עננים שבסיסם נמוך מ 5000 רגל או קומולונימבוס

METAR: LEMO 231630Z VRB05KT CAVOK 40/11 Q1015 NOSIG

זמן: 19:09 (17:09 UTC)

תחזית

הדו"ח נערך לפני 3 שעות ו 9דקות, בשעה 14:00 UTC
תחזית בתוקף מ 23 ב 15 UTC עד 24 ב 15 UTC
רוח 5קשר מכיוון דרום-מערב
ראות 10 קילומטר או יותר
ללא עננים שבסיסם נמוך מ 5000 רגל או קומולונימבוס

TAF: LEMO 231400Z 2315/2415 23005KT CAVOK TX42/2415Z TN22/2405Z

תצפיות ותחזיות מזג אוויר לגבי יותר מ- 4,000 שדות תעופה ברחבי העולם. דוחות METAR ו- TAF.

התחנות הזמינות מסומנות בנקודות צהובות ואדומות על גבי המפה.

העבר את העכבר לנקודה הצבעונית על מנת לראות את שם התחנה.

לאחר מכן, לחץ כדי לראות את תוכן ואת תחזיות מזג האוויר.

כדי לשנות את המפה: לחץ על הכפתורים הירוקים עם הפלוס השחור כדי להתקרב; על הכפתור הירוק עם המקף כדי להתרחק; או בחיצים הירוקים למפות סמוכות.


METAR-TAF: